Tamboril, Brazil
Current Conditions -  °F | °C
As of 10:00 AM on Saturday 01 Nov 2014 (Local Time) from SBFZ Reporting Station
Scattered Clouds Scattered Clouds  
Wind Chill: 86°   Ceiling: Unl
Heat Index: 86°   Visibility: 6mi
Dew Point: 61°   Wind: 24mph
Humidity: 43%   Direction: 110°ESE
Pressure: 29.94"   Gusts: NA
Location:  4.83°S, 40.32°W
Report Text: SBFZ 011300Z 11021KT 9999 SCT020 30/16 Q1014
Loading
Personal Weather Stations






























Interactive Weather Map
Tropical Storm Tracking
New forecast layout! Learn more

10-Day Weather Forecast

Advertisements
Track Severe Weather on mobile